Station: EBSP - 20/07/2019 09:51Z (il y a 21 minutes)
EBSP 200950Z AUTO 21008KT 160V250 CAVOK 23/13 Q1013
Vent du 210º - 8 kt (vent de direction variable de 160º à 250º)
Visibilité > 10 km et plafond haut ou pas de nuages significatifs
Température: +23ºC - Point de rosée: +13ºC - QNH: 1013 hPa